sensor_id;sensor_type;location;lat;lon;timestamp;P1;P2;P0
77354;PMS7003;66422;51.202;19.936;2023-07-28T00:01:12;15.00;15.00;13.00
77354;PMS7003;66422;51.202;19.936;2023-07-28T01:04:13;16.00;13.50;11.00
77354;PMS7003;66422;51.202;19.936;2023-07-28T01:19:29;18.00;17.00;13.00
77354;PMS7003;66422;51.202;19.936;2023-07-28T01:34:49;14.00;12.00;10.00
77354;PMS7003;66422;51.202;19.936;2023-07-28T01:50:08;11.00;11.00;9.00
77354;PMS7003;66422;51.202;19.936;2023-07-28T02:05:29;14.00;11.00;10.00
77354;PMS7003;66422;51.202;19.936;2023-07-28T02:20:49;13.00;13.00;12.00
77354;PMS7003;66422;51.202;19.936;2023-07-28T02:36:09;9.50;8.50;8.50
77354;PMS7003;66422;51.202;19.936;2023-07-28T02:51:28;11.00;11.00;9.00
77354;PMS7003;66422;51.202;19.936;2023-07-28T03:06:48;12.00;10.00;8.50
77354;PMS7003;66422;51.202;19.936;2023-07-28T03:38:05;12.00;9.00;8.00
77354;PMS7003;66422;51.202;19.936;2023-07-28T05:12:02;10.00;9.50;7.00
77354;PMS7003;66422;51.202;19.936;2023-07-28T05:42:55;13.00;10.00;8.50
77354;PMS7003;66422;51.202;19.936;2023-07-28T06:13:39;9.00;7.00;6.00
77354;PMS7003;66422;51.202;19.936;2023-07-28T06:28:58;7.00;7.00;6.00
77354;PMS7003;66422;51.202;19.936;2023-07-28T06:44:18;8.00;7.00;6.00
77354;PMS7003;66422;51.202;19.936;2023-07-28T06:59:38;5.00;5.00;4.00
77354;PMS7003;66422;51.202;19.936;2023-07-28T07:14:58;5.50;5.50;4.50
77354;PMS7003;66422;51.202;19.936;2023-07-28T07:30:17;5.00;2.00;2.00
77354;PMS7003;66422;51.202;19.936;2023-07-28T07:45:37;6.00;6.00;6.00
77354;PMS7003;66422;51.202;19.936;2023-07-28T08:00:57;4.00;4.00;3.00
77354;PMS7003;66422;51.202;19.936;2023-07-28T08:16:17;10.50;6.00;5.00
77354;PMS7003;66422;51.202;19.936;2023-07-28T08:31:36;7.00;6.00;6.00
77354;PMS7003;66422;51.202;19.936;2023-07-28T08:46:56;9.50;6.50;5.50
77354;PMS7003;66422;51.202;19.936;2023-07-28T09:02:16;6.00;6.00;5.00
77354;PMS7003;66422;51.202;19.936;2023-07-28T09:17:44;6.00;6.00;5.50
77354;PMS7003;66422;51.202;19.936;2023-07-28T09:52:20;2.00;1.00;1.00
77354;PMS7003;66422;51.202;19.936;2023-07-28T10:07:46;8.00;5.00;5.00
77354;PMS7003;66422;51.202;19.936;2023-07-28T10:23:15;4.33;4.33;3.33
77354;PMS7003;66422;51.202;19.936;2023-07-28T10:38:36;5.50;4.00;4.00
77354;PMS7003;66422;51.202;19.936;2023-07-28T10:53:56;3.67;3.67;3.67
77354;PMS7003;66422;51.202;19.936;2023-07-28T11:09:22;3.00;3.00;3.00
77354;PMS7003;66422;51.202;19.936;2023-07-28T11:24:45;1.00;1.00;1.00
77354;PMS7003;66422;51.202;19.936;2023-07-28T11:39:59;2.00;2.00;2.00
77354;PMS7003;66422;51.202;19.936;2023-07-28T11:55:13;3.67;3.00;3.00
77354;PMS7003;66422;51.202;19.936;2023-07-28T12:10:37;2.00;2.00;2.00
77354;PMS7003;66422;51.202;19.936;2023-07-28T12:26:15;3.00;3.00;2.00
77354;PMS7003;66422;51.202;19.936;2023-07-28T12:41:35;2.00;2.00;2.00
77354;PMS7003;66422;51.202;19.936;2023-07-28T12:56:55;2.00;1.33;1.00
77354;PMS7003;66422;51.202;19.936;2023-07-28T13:28:01;2.67;2.67;2.33
77354;PMS7003;66422;51.202;19.936;2023-07-28T13:43:21;3.00;3.00;2.50
77354;PMS7003;66422;51.202;19.936;2023-07-28T13:58:40;2.00;2.00;1.50
77354;PMS7003;66422;51.202;19.936;2023-07-28T14:14:02;5.00;4.00;4.00
77354;PMS7003;66422;51.202;19.936;2023-07-28T14:29:22;5.50;4.50;4.50
77354;PMS7003;66422;51.202;19.936;2023-07-28T14:44:42;6.00;5.00;4.00
77354;PMS7003;66422;51.202;19.936;2023-07-28T15:00:02;3.00;3.00;3.00
77354;PMS7003;66422;51.202;19.936;2023-07-28T15:15:23;2.00;2.00;2.00
77354;PMS7003;66422;51.202;19.936;2023-07-28T15:30:42;3.00;3.00;3.00
77354;PMS7003;66422;51.202;19.936;2023-07-28T15:46:05;2.00;1.00;1.00
77354;PMS7003;66422;51.202;19.936;2023-07-28T16:01:26;3.50;3.50;2.25
77354;PMS7003;66422;51.202;19.936;2023-07-28T16:16:46;4.00;2.00;2.00
77354;PMS7003;66422;51.202;19.936;2023-07-28T16:32:06;6.50;6.00;5.50
77354;PMS7003;66422;51.202;19.936;2023-07-28T16:47:33;5.00;5.00;3.50
77354;PMS7003;66422;51.202;19.936;2023-07-28T18:55:08;7.50;6.50;5.00
77354;PMS7003;66422;51.202;19.936;2023-07-28T19:10:29;8.00;8.00;7.50
77354;PMS7003;66422;51.202;19.936;2023-07-28T19:25:49;11.00;8.00;7.00
77354;PMS7003;66422;51.202;19.936;2023-07-28T19:41:11;14.00;13.50;9.50
77354;PMS7003;66422;51.202;19.936;2023-07-28T20:28:00;9.00;8.00;6.00
77354;PMS7003;66422;51.202;19.936;2023-07-28T20:43:20;9.00;8.00;7.00
77354;PMS7003;66422;51.202;19.936;2023-07-28T22:01:43;11.00;9.00;7.00
77354;PMS7003;66422;51.202;19.936;2023-07-28T22:17:06;12.00;11.00;9.00
77354;PMS7003;66422;51.202;19.936;2023-07-28T22:32:28;12.50;10.50;8.50
77354;PMS7003;66422;51.202;19.936;2023-07-28T22:48:03;10.50;8.50;7.50
77354;PMS7003;66422;51.202;19.936;2023-07-28T23:03:23;9.00;9.00;7.67
77354;PMS7003;66422;51.202;19.936;2023-07-28T23:18:43;13.00;12.00;9.00
77354;PMS7003;66422;51.202;19.936;2023-07-28T23:34:02;12.00;12.00;9.00
77354;PMS7003;66422;51.202;19.936;2023-07-28T23:49:32;15.00;14.00;9.50
